sensor_id;sensor_type;location;lat;lon;timestamp;pressure;altitude;pressure_sealevel;temperature;humidity
41688;BME280;27371;42.686;23.362;2023-09-12T00:04:34;166447.97;;;16.28;55.22
41688;BME280;27371;42.686;23.362;2023-09-12T00:06:59;166540.50;;;16.63;55.20
41688;BME280;27371;42.686;23.362;2023-09-12T00:09:25;166523.03;;;16.57;55.46
41688;BME280;27371;42.686;23.362;2023-09-12T00:11:51;166508.28;;;16.51;55.43
41688;BME280;27371;42.686;23.362;2023-09-12T00:14:17;166493.53;;;16.45;55.80
41688;BME280;27371;42.686;23.362;2023-09-12T00:16:44;166488.22;;;16.43;55.61
41688;BME280;27371;42.686;23.362;2023-09-12T00:19:10;166492.19;;;16.45;55.73
41688;BME280;27371;42.686;23.362;2023-09-12T00:21:35;166481.50;;;16.41;55.92
41688;BME280;27371;42.686;23.362;2023-09-12T00:24:01;166453.34;;;16.30;55.58
41688;BME280;27371;42.686;23.362;2023-09-12T00:26:26;166481.50;;;16.41;55.80
41688;BME280;27371;42.686;23.362;2023-09-12T00:28:52;166442.59;;;16.26;55.81
41688;BME280;27371;42.686;23.362;2023-09-12T00:31:17;166472.06;;;16.37;55.51
41688;BME280;27371;42.686;23.362;2023-09-12T00:33:43;166449.28;;;16.29;55.32
41688;BME280;27371;42.686;23.362;2023-09-12T00:36:08;166439.94;;;16.25;55.41
41688;BME280;27371;42.686;23.362;2023-09-12T00:38:34;166405.06;;;16.12;55.72
41688;BME280;27371;42.686;23.362;2023-09-12T00:40:59;166456.00;;;16.31;55.34
41688;BME280;27371;42.686;23.362;2023-09-12T00:43:25;166458.72;;;16.32;55.41
41688;BME280;27371;42.686;23.362;2023-09-12T00:45:50;166460.03;;;16.33;55.28
41688;BME280;27371;42.686;23.362;2023-09-12T00:48:16;166457.34;;;16.32;55.27
41688;BME280;27371;42.686;23.362;2023-09-12T00:50:43;166431.88;;;16.22;55.20
41688;BME280;27371;42.686;23.362;2023-09-12T00:53:11;166445.31;;;16.27;55.52
41688;BME280;27371;42.686;23.362;2023-09-12T00:55:39;166433.22;;;16.22;55.64
41688;BME280;27371;42.686;23.362;2023-09-12T00:58:06;166407.78;;;16.13;55.52
41688;BME280;27371;42.686;23.362;2023-09-12T01:00:33;166403.72;;;16.11;55.71
41688;BME280;27371;42.686;23.362;2023-09-12T01:02:58;166417.16;;;16.16;55.79
41688;BME280;27371;42.686;23.362;2023-09-12T01:05:24;166410.44;;;16.14;56.18
41688;BME280;27371;42.686;23.362;2023-09-12T01:07:49;166390.31;;;16.06;56.22
41688;BME280;27371;42.686;23.362;2023-09-12T01:10:15;166356.78;;;15.93;56.66
41688;BME280;27371;42.686;23.362;2023-09-12T01:12:41;166336.72;;;15.86;56.97
41688;BME280;27371;42.686;23.362;2023-09-12T01:15:07;166328.69;;;15.83;57.26
41688;BME280;27371;42.686;23.362;2023-09-12T01:17:40;166279.03;;;15.64;57.28
41688;BME280;27371;42.686;23.362;2023-09-12T01:20:08;166246.84;;;15.51;57.59
41688;BME280;27371;42.686;23.362;2023-09-12T01:25:42;166304.53;;;15.73;57.89
41688;BME280;27371;42.686;23.362;2023-09-12T01:28:11;166293.81;;;15.69;58.05
41688;BME280;27371;42.686;23.362;2023-09-12T01:30:40;166275.00;;;15.62;58.41
41688;BME280;27371;42.686;23.362;2023-09-12T01:33:07;166254.88;;;15.54;58.57
41688;BME280;27371;42.686;23.362;2023-09-12T01:35:32;166249.56;;;15.52;58.68
41688;BME280;27371;42.686;23.362;2023-09-12T01:37:58;166268.28;;;15.59;58.57
41688;BME280;27371;42.686;23.362;2023-09-12T01:40:53;166264.28;;;15.58;58.67
41688;BME280;27371;42.686;23.362;2023-09-12T01:43:22;166225.41;;;15.43;58.68
41688;BME280;27371;42.686;23.362;2023-09-12T01:45:50;166183.91;;;15.27;59.22
41688;BME280;27371;42.686;23.362;2023-09-12T01:48:20;166123.56;;;15.04;59.60
41688;BME280;27371;42.686;23.362;2023-09-12T01:50:46;166185.22;;;15.28;59.99
41688;BME280;27371;42.686;23.362;2023-09-12T01:53:12;166171.81;;;15.23;59.99
41688;BME280;27371;42.686;23.362;2023-09-12T01:55:40;166131.59;;;15.07;60.37
41688;BME280;27371;42.686;23.362;2023-09-12T01:58:07;166149.06;;;15.14;60.27
41688;BME280;27371;42.686;23.362;2023-09-12T02:00:33;166181.19;;;15.26;60.75
41688;BME280;27371;42.686;23.362;2023-09-12T02:02:59;166149.06;;;15.14;60.83
41688;BME280;27371;42.686;23.362;2023-09-12T02:05:25;166119.56;;;15.03;61.42
41688;BME280;27371;42.686;23.362;2023-09-12T02:07:51;166153.03;;;15.15;61.47
41688;BME280;27371;42.686;23.362;2023-09-12T02:10:17;166154.38;;;15.16;61.29
41688;BME280;27371;42.686;23.362;2023-09-12T02:12:42;166149.06;;;15.14;61.57
41688;BME280;27371;42.686;23.362;2023-09-12T02:15:08;166136.97;;;15.09;61.51
41688;BME280;27371;42.686;23.362;2023-09-12T02:17:34;166130.28;;;15.07;61.34
41688;BME280;27371;42.686;23.362;2023-09-12T02:19:59;166130.28;;;15.07;61.94
41688;BME280;27371;42.686;23.362;2023-09-12T02:22:25;166064.63;;;14.82;62.16
41688;BME280;27371;42.686;23.362;2023-09-12T02:24:50;166102.13;;;14.96;62.22
41688;BME280;27371;42.686;23.362;2023-09-12T02:27:16;166063.31;;;14.81;62.46
41688;BME280;27371;42.686;23.362;2023-09-12T02:29:42;166079.38;;;14.87;62.40
41688;BME280;27371;42.686;23.362;2023-09-12T02:32:07;166082.03;;;14.88;62.31
41688;BME280;27371;42.686;23.362;2023-09-12T02:34:33;166074.00;;;14.85;62.02
41688;BME280;27371;42.686;23.362;2023-09-12T02:36:59;166053.94;;;14.78;62.46
41688;BME280;27371;42.686;23.362;2023-09-12T02:39:24;166065.97;;;14.82;62.73
41688;BME280;27371;42.686;23.362;2023-09-12T02:41:50;166063.31;;;14.81;62.35
41688;BME280;27371;42.686;23.362;2023-09-12T02:44:15;166033.84;;;14.70;62.53
41688;BME280;27371;42.686;23.362;2023-09-12T02:46:41;166029.78;;;14.68;62.56
41688;BME280;27371;42.686;23.362;2023-09-12T02:49:07;166020.44;;;14.65;62.66
41688;BME280;27371;42.686;23.362;2023-09-12T02:51:32;165964.13;;;14.43;63.14
41688;BME280;27371;42.686;23.362;2023-09-12T02:53:57;165953.44;;;14.39;63.02
41688;BME280;27371;42.686;23.362;2023-09-12T02:56:23;166023.09;;;14.66;63.22
41688;BME280;27371;42.686;23.362;2023-09-12T02:58:49;166015.06;;;14.63;62.89
41688;BME280;27371;42.686;23.362;2023-09-12T03:01:19;166023.09;;;14.66;62.85
41688;BME280;27371;42.686;23.362;2023-09-12T03:03:50;166027.13;;;14.67;62.53
41688;BME280;27371;42.686;23.362;2023-09-12T03:06:16;166023.09;;;14.66;62.80
41688;BME280;27371;42.686;23.362;2023-09-12T03:08:43;166032.50;;;14.69;63.05
41688;BME280;27371;42.686;23.362;2023-09-12T03:11:09;166032.50;;;14.69;62.71
41688;BME280;27371;42.686;23.362;2023-09-12T03:13:40;165922.59;;;14.27;62.82
41688;BME280;27371;42.686;23.362;2023-09-12T03:16:13;166027.13;;;14.67;62.97
41688;BME280;27371;42.686;23.362;2023-09-12T03:18:39;166037.81;;;14.72;63.23
41688;BME280;27371;42.686;23.362;2023-09-12T03:21:05;166019.09;;;14.64;63.36
41688;BME280;27371;42.686;23.362;2023-09-12T03:23:31;166019.09;;;14.64;62.87
41688;BME280;27371;42.686;23.362;2023-09-12T03:26:04;165994.97;;;14.55;63.08
41688;BME280;27371;42.686;23.362;2023-09-12T03:28:31;165926.63;;;14.29;63.50
41688;BME280;27371;42.686;23.362;2023-09-12T03:31:12;165937.31;;;14.33;63.79
41688;BME280;27371;42.686;23.362;2023-09-12T03:33:39;165946.72;;;14.37;64.03
41688;BME280;27371;42.686;23.362;2023-09-12T03:36:06;165923.97;;;14.28;64.44
41688;BME280;27371;42.686;23.362;2023-09-12T03:38:33;165867.72;;;14.07;64.80
41688;BME280;27371;42.686;23.362;2023-09-12T03:40:58;165870.38;;;14.08;65.14
41688;BME280;27371;42.686;23.362;2023-09-12T03:43:24;165800.72;;;13.81;65.93
41688;BME280;27371;42.686;23.362;2023-09-12T03:45:50;165788.72;;;13.76;66.19
41688;BME280;27371;42.686;23.362;2023-09-12T03:48:15;165749.84;;;13.62;66.59
41688;BME280;27371;42.686;23.362;2023-09-12T03:50:41;165752.56;;;13.63;66.42
41688;BME280;27371;42.686;23.362;2023-09-12T03:53:06;165727.09;;;13.53;67.02
41688;BME280;27371;42.686;23.362;2023-09-12T03:55:33;165686.97;;;13.38;67.48
41688;BME280;27371;42.686;23.362;2023-09-12T03:57:59;165696.34;;;13.41;67.52
41688;BME280;27371;42.686;23.362;2023-09-12T04:00:24;165644.09;;;13.21;67.55
41688;BME280;27371;42.686;23.362;2023-09-12T04:02:50;165729.81;;;13.54;67.66
41688;BME280;27371;42.686;23.362;2023-09-12T04:05:15;165753.91;;;13.63;67.83
41688;BME280;27371;42.686;23.362;2023-09-12T04:07:41;165751.25;;;13.62;67.65
41688;BME280;27371;42.686;23.362;2023-09-12T04:10:07;165724.44;;;13.52;67.46
41688;BME280;27371;42.686;23.362;2023-09-12T04:12:32;165745.88;;;13.60;67.29
41688;BME280;27371;42.686;23.362;2023-09-12T04:14:58;165790.03;;;13.77;66.54
41688;BME280;27371;42.686;23.362;2023-09-12T04:17:26;165772.66;;;13.70;66.66
41688;BME280;27371;42.686;23.362;2023-09-12T04:19:51;165808.81;;;13.84;66.41
41688;BME280;27371;42.686;23.362;2023-09-12T04:22:17;165792.69;;;13.78;66.29
41688;BME280;27371;42.686;23.362;2023-09-12T04:24:42;165808.81;;;13.84;66.49
41688;BME280;27371;42.686;23.362;2023-09-12T04:27:08;165838.25;;;13.95;66.33
41688;BME280;27371;42.686;23.362;2023-09-12T04:29:33;165844.97;;;13.98;66.16
41688;BME280;27371;42.686;23.362;2023-09-12T04:32:01;165838.25;;;13.95;66.06
41688;BME280;27371;42.686;23.362;2023-09-12T04:34:27;165854.31;;;14.01;66.10
41688;BME280;27371;42.686;23.362;2023-09-12T04:36:53;165899.81;;;14.19;65.90
41688;BME280;27371;42.686;23.362;2023-09-12T04:39:19;165886.44;;;14.14;65.71
41688;BME280;27371;42.686;23.362;2023-09-12T04:41:45;165936.00;;;14.33;65.70
41688;BME280;27371;42.686;23.362;2023-09-12T04:44:11;165990.97;;;14.54;65.40
41688;BME280;27371;42.686;23.362;2023-09-12T04:46:36;166132.94;;;15.08;64.74
41688;BME280;27371;42.686;23.362;2023-09-12T04:49:02;166305.84;;;15.74;62.29
41688;BME280;27371;42.686;23.362;2023-09-12T04:51:28;166452.00;;;16.30;60.34
41688;BME280;27371;42.686;23.362;2023-09-12T04:53:56;166627.72;;;16.97;58.28
41688;BME280;27371;42.686;23.362;2023-09-12T04:56:22;166798.09;;;17.62;55.86
41688;BME280;27371;42.686;23.362;2023-09-12T04:58:49;166893.41;;;17.98;54.11
41688;BME280;27371;42.686;23.362;2023-09-12T05:01:15;166995.38;;;18.37;52.89
41688;BME280;27371;42.686;23.362;2023-09-12T05:03:41;167019.53;;;18.46;52.30
41688;BME280;27371;42.686;23.362;2023-09-12T05:06:07;167122.94;;;18.85;51.42
41688;BME280;27371;42.686;23.362;2023-09-12T05:08:32;167184.72;;;19.09;50.29
41688;BME280;27371;42.686;23.362;2023-09-12T05:10:58;167196.81;;;19.13;49.14
41688;BME280;27371;42.686;23.362;2023-09-12T05:13:23;167219.63;;;19.22;48.65
41688;BME280;27371;42.686;23.362;2023-09-12T05:15:49;167126.97;;;18.87;48.55
41688;BME280;27371;42.686;23.362;2023-09-12T05:18:14;167018.19;;;18.45;49.74
41688;BME280;27371;42.686;23.362;2023-09-12T05:20:39;166930.97;;;18.12;50.58
41688;BME280;27371;42.686;23.362;2023-09-12T05:23:05;166747.06;;;17.42;51.68
41688;BME280;27371;42.686;23.362;2023-09-12T05:25:30;166843.75;;;17.79;51.81
41688;BME280;27371;42.686;23.362;2023-09-12T05:27:56;166823.56;;;17.71;51.92
41688;BME280;27371;42.686;23.362;2023-09-12T05:30:22;166838.31;;;17.77;51.96
41688;BME280;27371;42.686;23.362;2023-09-12T05:32:47;166866.56;;;17.88;51.82
41688;BME280;27371;42.686;23.362;2023-09-12T05:35:13;166963.16;;;18.24;51.08
41688;BME280;27371;42.686;23.362;2023-09-12T05:37:38;167014.16;;;18.44;50.35
41688;BME280;27371;42.686;23.362;2023-09-12T05:40:04;167071.88;;;18.66;50.05
41688;BME280;27371;42.686;23.362;2023-09-12T05:42:31;167096.13;;;18.75;49.09
41688;BME280;27371;42.686;23.362;2023-09-12T05:44:56;167011.47;;;18.43;49.04
41688;BME280;27371;42.686;23.362;2023-09-12T05:47:22;167089.34;;;18.73;49.32
41688;BME280;27371;42.686;23.362;2023-09-12T05:49:47;167129.66;;;18.88;48.79
41688;BME280;27371;42.686;23.362;2023-09-12T05:52:13;167117.59;;;18.83;48.48
41688;BME280;27371;42.686;23.362;2023-09-12T05:54:39;167222.31;;;19.23;47.54
41688;BME280;27371;42.686;23.362;2023-09-12T05:57:06;167300.19;;;19.53;46.59
41688;BME280;27371;42.686;23.362;2023-09-12T05:59:35;167367.38;;;19.78;45.96
41688;BME280;27371;42.686;23.362;2023-09-12T06:02:01;167405.00;;;19.93;45.41
41688;BME280;27371;42.686;23.362;2023-09-12T06:04:27;167430.53;;;20.02;44.82
41688;BME280;27371;42.686;23.362;2023-09-12T06:06:52;167446.66;;;20.09;45.27
41688;BME280;27371;42.686;23.362;2023-09-12T06:09:18;167429.19;;;20.02;45.08
41688;BME280;27371;42.686;23.362;2023-09-12T06:11:43;167474.88;;;20.19;44.80
41688;BME280;27371;42.686;23.362;2023-09-12T06:14:09;167529.97;;;20.40;44.19
41688;BME280;27371;42.686;23.362;2023-09-12T06:16:34;167554.13;;;20.50;43.96
41688;BME280;27371;42.686;23.362;2023-09-12T06:19:00;167570.28;;;20.56;43.73
41688;BME280;27371;42.686;23.362;2023-09-12T06:21:26;167607.91;;;20.70;43.46
41688;BME280;27371;42.686;23.362;2023-09-12T06:24:08;167638.84;;;20.82;43.15
41688;BME280;27371;42.686;23.362;2023-09-12T06:26:34;167661.69;;;20.90;42.99
41688;BME280;27371;42.686;23.362;2023-09-12T06:28:59;167605.25;;;20.69;42.68
41688;BME280;27371;42.686;23.362;2023-09-12T06:31:24;167676.47;;;20.96;42.41
41688;BME280;27371;42.686;23.362;2023-09-12T06:33:50;167718.16;;;21.12;42.01
41688;BME280;27371;42.686;23.362;2023-09-12T06:36:15;167801.50;;;21.44;41.07
41688;BME280;27371;42.686;23.362;2023-09-12T06:38:41;167769.22;;;21.31;40.62
41688;BME280;27371;42.686;23.362;2023-09-12T06:41:06;167723.50;;;21.14;40.90
41688;BME280;27371;42.686;23.362;2023-09-12T06:43:32;167696.66;;;21.04;41.26
41688;BME280;27371;42.686;23.362;2023-09-12T06:45:57;167691.25;;;21.02;41.29
41688;BME280;27371;42.686;23.362;2023-09-12T06:48:23;167723.50;;;21.14;41.29
41688;BME280;27371;42.686;23.362;2023-09-12T06:50:48;167711.44;;;21.09;41.75
41688;BME280;27371;42.686;23.362;2023-09-12T06:53:18;167723.50;;;21.14;42.19
41688;BME280;27371;42.686;23.362;2023-09-12T06:55:43;167734.28;;;21.18;41.91
41688;BME280;27371;42.686;23.362;2023-09-12T06:58:09;167751.72;;;21.25;42.13
41688;BME280;27371;42.686;23.362;2023-09-12T07:00:34;167758.44;;;21.27;42.00
41688;BME280;27371;42.686;23.362;2023-09-12T07:03:00;167809.56;;;21.47;41.70
41688;BME280;27371;42.686;23.362;2023-09-12T07:05:25;167866.03;;;21.68;41.51
41688;BME280;27371;42.686;23.362;2023-09-12T07:07:52;167867.38;;;21.69;40.90
41688;BME280;27371;42.686;23.362;2023-09-12T07:10:17;167902.34;;;21.82;40.65
41688;BME280;27371;42.686;23.362;2023-09-12T07:12:43;167968.22;;;22.07;40.29
41688;BME280;27371;42.686;23.362;2023-09-12T07:15:09;167933.25;;;21.94;39.67
41688;BME280;27371;42.686;23.362;2023-09-12T07:17:34;167977.63;;;22.11;39.75
41688;BME280;27371;42.686;23.362;2023-09-12T07:20:00;168018.03;;;22.26;39.53
41688;BME280;27371;42.686;23.362;2023-09-12T07:22:25;168057.03;;;22.41;39.15
41688;BME280;27371;42.686;23.362;2023-09-12T07:24:51;168077.19;;;22.49;38.50
41688;BME280;27371;42.686;23.362;2023-09-12T07:27:16;168051.69;;;22.39;38.47
41688;BME280;27371;42.686;23.362;2023-09-12T07:29:42;168027.44;;;22.30;38.28
41688;BME280;27371;42.686;23.362;2023-09-12T07:32:07;168067.81;;;22.45;37.93
41688;BME280;27371;42.686;23.362;2023-09-12T07:34:33;168069.13;;;22.45;37.74
41688;BME280;27371;42.686;23.362;2023-09-12T07:36:58;168106.78;;;22.60;37.90
41688;BME280;27371;42.686;23.362;2023-09-12T07:39:24;168131.03;;;22.69;37.52
41688;BME280;27371;42.686;23.362;2023-09-12T07:41:50;168176.75;;;22.86;37.02
41688;BME280;27371;42.686;23.362;2023-09-12T07:44:15;168219.84;;;23.03;36.47
41688;BME280;27371;42.686;23.362;2023-09-12T07:46:42;168230.59;;;23.07;35.82
41688;BME280;27371;42.686;23.362;2023-09-12T07:49:08;168213.13;;;23.00;35.41
41688;BME280;27371;42.686;23.362;2023-09-12T07:51:34;168237.31;;;23.09;35.22
41688;BME280;27371;42.686;23.362;2023-09-12T07:54:00;168203.72;;;22.97;35.40
41688;BME280;27371;42.686;23.362;2023-09-12T07:56:26;168262.91;;;23.19;35.50
41688;BME280;27371;42.686;23.362;2023-09-12T07:58:51;168218.50;;;23.02;34.85
41688;BME280;27371;42.686;23.362;2023-09-12T08:01:17;168301.91;;;23.34;34.38
41688;BME280;27371;42.686;23.362;2023-09-12T08:03:42;168274.97;;;23.24;33.87
41688;BME280;27371;42.686;23.362;2023-09-12T08:06:08;168315.38;;;23.39;33.57
41688;BME280;27371;42.686;23.362;2023-09-12T08:08:34;168284.44;;;23.27;33.84
41688;BME280;27371;42.686;23.362;2023-09-12T08:10:59;168309.97;;;23.37;33.76
41688;BME280;27371;42.686;23.362;2023-09-12T08:13:29;168334.22;;;23.46;33.75
41688;BME280;27371;42.686;23.362;2023-09-12T08:15:56;168331.50;;;23.45;33.86
41688;BME280;27371;42.686;23.362;2023-09-12T08:18:25;168410.94;;;23.75;33.61
41688;BME280;27371;42.686;23.362;2023-09-12T08:20:51;168482.28;;;24.03;33.09
41688;BME280;27371;42.686;23.362;2023-09-12T08:23:16;168528.03;;;24.20;32.16
41688;BME280;27371;42.686;23.362;2023-09-12T08:25:42;168517.28;;;24.16;32.30
41688;BME280;27371;42.686;23.362;2023-09-12T08:28:07;168577.84;;;24.39;32.23
41688;BME280;27371;42.686;23.362;2023-09-12T08:30:33;168633.09;;;24.60;32.24
41688;BME280;27371;42.686;23.362;2023-09-12T08:32:58;168668.13;;;24.73;31.89
41688;BME280;27371;42.686;23.362;2023-09-12T08:35:24;168677.53;;;24.77;31.78
41688;BME280;27371;42.686;23.362;2023-09-12T08:37:51;168669.44;;;24.74;32.06
41688;BME280;27371;42.686;23.362;2023-09-12T08:40:17;168669.44;;;24.74;31.59
41688;BME280;27371;42.686;23.362;2023-09-12T08:42:44;168684.25;;;24.79;31.86
41688;BME280;27371;42.686;23.362;2023-09-12T08:45:14;168708.47;;;24.88;31.65
41688;BME280;27371;42.686;23.362;2023-09-12T08:47:50;168758.31;;;25.07;31.27
41688;BME280;27371;42.686;23.362;2023-09-12T08:50:17;168740.81;;;25.01;31.00
41688;BME280;27371;42.686;23.362;2023-09-12T08:52:44;168662.72;;;24.71;31.57
41688;BME280;27371;42.686;23.362;2023-09-12T08:55:11;168689.66;;;24.81;31.88
41688;BME280;27371;42.686;23.362;2023-09-12T08:57:41;168738.09;;;25.00;31.28
41688;BME280;27371;42.686;23.362;2023-09-12T09:00:10;168794.72;;;25.21;30.80
41688;BME280;27371;42.686;23.362;2023-09-12T09:02:43;168837.81;;;25.38;30.57
41688;BME280;27371;42.686;23.362;2023-09-12T09:05:10;168860.69;;;25.46;30.37
41688;BME280;27371;42.686;23.362;2023-09-12T09:07:40;168901.13;;;25.62;30.10
41688;BME280;27371;42.686;23.362;2023-09-12T09:10:09;168862.03;;;25.47;29.68
41688;BME280;27371;42.686;23.362;2023-09-12T09:12:43;168843.19;;;25.40;29.96
41688;BME280;27371;42.686;23.362;2023-09-12T09:15:29;168934.75;;;25.74;29.78
41688;BME280;27371;42.686;23.362;2023-09-12T09:17:57;168915.94;;;25.67;29.53
41688;BME280;27371;42.686;23.362;2023-09-12T09:20:27;168976.56;;;25.90;29.26
41688;BME280;27371;42.686;23.362;2023-09-12T09:23:11;168995.44;;;25.97;29.27
41688;BME280;27371;42.686;23.362;2023-09-12T09:25:40;169035.84;;;26.13;28.91
41688;BME280;27371;42.686;23.362;2023-09-12T09:28:20;169119.38;;;26.44;28.74
41688;BME280;27371;42.686;23.362;2023-09-12T09:30:47;169126.13;;;26.47;28.50
41688;BME280;27371;42.686;23.362;2023-09-12T09:33:13;169123.41;;;26.46;28.95
41688;BME280;27371;42.686;23.362;2023-09-12T09:35:43;169089.75;;;26.33;28.15
41688;BME280;27371;42.686;23.362;2023-09-12T09:38:10;169056.06;;;26.20;28.56
41688;BME280;27371;42.686;23.362;2023-09-12T09:40:41;168999.47;;;25.99;28.75
41688;BME280;27371;42.686;23.362;2023-09-12T09:43:07;168913.19;;;25.66;29.20
41688;BME280;27371;42.686;23.362;2023-09-12T09:45:42;168882.25;;;25.54;29.21
41688;BME280;27371;42.686;23.362;2023-09-12T09:48:08;168800.09;;;25.23;29.65
41688;BME280;27371;42.686;23.362;2023-09-12T09:50:34;168778.56;;;25.15;29.76
41688;BME280;27371;42.686;23.362;2023-09-12T09:53:03;168779.91;;;25.16;29.66
41688;BME280;27371;42.686;23.362;2023-09-12T09:55:30;168778.56;;;25.15;29.44
41688;BME280;27371;42.686;23.362;2023-09-12T09:57:57;168825.66;;;25.33;29.72
41688;BME280;27371;42.686;23.362;2023-09-12T10:00:23;168802.78;;;25.24;29.85
41688;BME280;27371;42.686;23.362;2023-09-12T10:02:50;168808.19;;;25.26;29.45
41688;BME280;27371;42.686;23.362;2023-09-12T10:05:17;168817.59;;;25.30;29.10
41688;BME280;27371;42.686;23.362;2023-09-12T10:07:47;168802.78;;;25.24;29.04
41688;BME280;27371;42.686;23.362;2023-09-12T10:10:13;168883.56;;;25.55;29.08
41688;BME280;27371;42.686;23.362;2023-09-12T10:13:05;168856.69;;;25.45;28.45
41688;BME280;27371;42.686;23.362;2023-09-12T10:15:30;168890.31;;;25.58;28.77
41688;BME280;27371;42.686;23.362;2023-09-12T10:17:59;168899.78;;;25.61;29.00
41688;BME280;27371;42.686;23.362;2023-09-12T10:20:58;168863.41;;;25.47;29.34
41688;BME280;27371;42.686;23.362;2023-09-12T10:23:31;168786.63;;;25.18;29.35
41688;BME280;27371;42.686;23.362;2023-09-12T10:26:02;168898.38;;;25.61;29.03
41688;BME280;27371;42.686;23.362;2023-09-12T10:28:28;168882.25;;;25.54;28.84
41688;BME280;27371;42.686;23.362;2023-09-12T10:30:57;168887.63;;;25.57;28.95
41688;BME280;27371;42.686;23.362;2023-09-12T10:33:23;168907.84;;;25.64;28.65
41688;BME280;27371;42.686;23.362;2023-09-12T10:35:49;168871.50;;;25.50;28.75
41688;BME280;27371;42.686;23.362;2023-09-12T10:38:16;168786.63;;;25.18;28.87
41688;BME280;27371;42.686;23.362;2023-09-12T10:40:47;168859.34;;;25.46;28.79
41688;BME280;27371;42.686;23.362;2023-09-12T10:43:13;168832.41;;;25.36;29.53
41688;BME280;27371;42.686;23.362;2023-09-12T10:45:40;168870.09;;;25.50;28.95
41688;BME280;27371;42.686;23.362;2023-09-12T10:48:06;168871.50;;;25.50;29.18
41688;BME280;27371;42.686;23.362;2023-09-12T10:50:32;168866.09;;;25.48;29.03
41688;BME280;27371;42.686;23.362;2023-09-12T10:53:11;168878.22;;;25.53;29.13
41688;BME280;27371;42.686;23.362;2023-09-12T10:55:37;168813.56;;;25.28;29.65
41688;BME280;27371;42.686;23.362;2023-09-12T10:58:05;168870.09;;;25.50;28.98
41688;BME280;27371;42.686;23.362;2023-09-12T11:00:31;168874.16;;;25.51;29.04
41688;BME280;27371;42.686;23.362;2023-09-12T11:02:59;168860.69;;;25.46;29.17
41688;BME280;27371;42.686;23.362;2023-09-12T11:08:01;168897.06;;;25.60;29.04
41688;BME280;27371;42.686;23.362;2023-09-12T11:10:29;168859.34;;;25.46;29.38
41688;BME280;27371;42.686;23.362;2023-09-12T11:12:56;168952.28;;;25.81;28.92
41688;BME280;27371;42.686;23.362;2023-09-12T11:15:24;169010.25;;;26.03;29.00
41688;BME280;27371;42.686;23.362;2023-09-12T11:18:10;169019.69;;;26.07;28.86
41688;BME280;27371;42.686;23.362;2023-09-12T11:21:00;168991.38;;;25.96;29.16
41688;BME280;27371;42.686;23.362;2023-09-12T11:23:28;169104.56;;;26.39;29.22
41688;BME280;27371;42.686;23.362;2023-09-12T11:26:07;169091.09;;;26.34;28.99
41688;BME280;27371;42.686;23.362;2023-09-12T11:28:35;169136.94;;;26.51;28.99
41688;BME280;27371;42.686;23.362;2023-09-12T11:31:00;169078.94;;;26.29;28.66
41688;BME280;27371;42.686;23.362;2023-09-12T11:33:26;169076.28;;;26.28;28.74
41688;BME280;27371;42.686;23.362;2023-09-12T11:35:54;168945.56;;;25.78;28.72
41688;BME280;27371;42.686;23.362;2023-09-12T11:38:31;169095.09;;;26.35;28.46
41688;BME280;27371;42.686;23.362;2023-09-12T11:40:57;169111.31;;;26.41;28.18
41688;BME280;27371;42.686;23.362;2023-09-12T11:43:25;169091.09;;;26.34;28.30
41688;BME280;27371;42.686;23.362;2023-09-12T11:45:51;169111.31;;;26.41;28.62
41688;BME280;27371;42.686;23.362;2023-09-12T11:48:18;169088.41;;;26.33;28.20
41688;BME280;27371;42.686;23.362;2023-09-12T11:50:52;168950.97;;;25.81;28.20
41688;BME280;27371;42.686;23.362;2023-09-12T11:53:24;169134.22;;;26.50;27.81
41688;BME280;27371;42.686;23.362;2023-09-12T11:55:53;169105.91;;;26.39;27.77
41688;BME280;27371;42.686;23.362;2023-09-12T11:58:19;169109.91;;;26.41;28.18
41688;BME280;27371;42.686;23.362;2023-09-12T12:00:47;169136.94;;;26.51;27.90
41688;BME280;27371;42.686;23.362;2023-09-12T12:03:15;169119.38;;;26.44;28.28
41688;BME280;27371;42.686;23.362;2023-09-12T12:05:40;169134.22;;;26.50;28.32
41688;BME280;27371;42.686;23.362;2023-09-12T12:08:07;169126.13;;;26.47;28.08
41688;BME280;27371;42.686;23.362;2023-09-12T12:10:34;169154.47;;;26.58;28.12
41688;BME280;27371;42.686;23.362;2023-09-12T12:12:59;169181.41;;;26.68;27.68
41688;BME280;27371;42.686;23.362;2023-09-12T12:15:27;169196.22;;;26.74;27.63
41688;BME280;27371;42.686;23.362;2023-09-12T12:17:56;169170.63;;;26.64;27.88
41688;BME280;27371;42.686;23.362;2023-09-12T12:20:22;169229.91;;;26.86;27.36
41688;BME280;27371;42.686;23.362;2023-09-12T12:22:48;169231.25;;;26.87;27.70
41688;BME280;27371;42.686;23.362;2023-09-12T12:25:19;169321.63;;;27.21;27.50
41688;BME280;27371;42.686;23.362;2023-09-12T12:27:45;169345.88;;;27.30;27.04
41688;BME280;27371;42.686;23.362;2023-09-12T12:30:12;169349.94;;;27.32;27.33
41688;BME280;27371;42.686;23.362;2023-09-12T12:32:41;169372.84;;;27.41;27.20
41688;BME280;27371;42.686;23.362;2023-09-12T12:35:08;169389.00;;;27.47;26.91
41688;BME280;27371;42.686;23.362;2023-09-12T12:37:33;169386.34;;;27.46;27.09
41688;BME280;27371;42.686;23.362;2023-09-12T12:40:02;169405.16;;;27.53;26.94
41688;BME280;27371;42.686;23.362;2023-09-12T12:42:38;169397.09;;;27.50;26.44
41688;BME280;27371;42.686;23.362;2023-09-12T12:45:14;169442.91;;;27.67;26.90
41688;BME280;27371;42.686;23.362;2023-09-12T12:47:40;169495.56;;;27.87;26.74
41688;BME280;27371;42.686;23.362;2023-09-12T12:50:14;169536.00;;;28.03;26.64